sensor_id;sensor_type;location;lat;lon;timestamp;temperature;humidity
51982;DHT22;37998;53.416;6.730;2023-04-15T00:01:24;8.40;99.90
51982;DHT22;37998;53.416;6.730;2023-04-15T00:03:53;8.40;99.90
51982;DHT22;37998;53.416;6.730;2023-04-15T00:06:22;8.40;99.90
51982;DHT22;37998;53.416;6.730;2023-04-15T00:08:48;8.40;99.90
51982;DHT22;37998;53.416;6.730;2023-04-15T00:11:15;8.40;99.90
51982;DHT22;37998;53.416;6.730;2023-04-15T00:13:41;8.40;99.90
51982;DHT22;37998;53.416;6.730;2023-04-15T00:16:08;8.40;99.90
51982;DHT22;37998;53.416;6.730;2023-04-15T00:18:34;8.30;99.90
51982;DHT22;37998;53.416;6.730;2023-04-15T00:21:01;8.50;99.90
51982;DHT22;37998;53.416;6.730;2023-04-15T00:23:27;8.40;99.90
51982;DHT22;37998;53.416;6.730;2023-04-15T00:25:53;8.40;99.90
51982;DHT22;37998;53.416;6.730;2023-04-15T00:28:19;8.30;99.90
51982;DHT22;37998;53.416;6.730;2023-04-15T00:30:45;8.30;99.90
51982;DHT22;37998;53.416;6.730;2023-04-15T00:33:12;8.30;99.90
51982;DHT22;37998;53.416;6.730;2023-04-15T00:35:38;8.30;99.90
51982;DHT22;37998;53.416;6.730;2023-04-15T00:38:05;8.30;99.90
51982;DHT22;37998;53.416;6.730;2023-04-15T00:40:31;8.20;99.90
51982;DHT22;37998;53.416;6.730;2023-04-15T00:42:56;8.20;99.90
51982;DHT22;37998;53.416;6.730;2023-04-15T00:45:22;8.20;99.90
51982;DHT22;37998;53.416;6.730;2023-04-15T00:47:48;8.20;99.90
51982;DHT22;37998;53.416;6.730;2023-04-15T00:50:15;8.20;99.90
51982;DHT22;37998;53.416;6.730;2023-04-15T00:52:41;8.20;99.90
51982;DHT22;37998;53.416;6.730;2023-04-15T00:55:07;8.30;99.90
51982;DHT22;37998;53.416;6.730;2023-04-15T00:57:33;8.20;99.90
51982;DHT22;37998;53.416;6.730;2023-04-15T00:59:59;8.20;99.90
51982;DHT22;37998;53.416;6.730;2023-04-15T01:02:26;8.20;99.90
51982;DHT22;37998;53.416;6.730;2023-04-15T01:04:51;8.20;99.90
51982;DHT22;37998;53.416;6.730;2023-04-15T01:07:17;8.10;99.90
51982;DHT22;37998;53.416;6.730;2023-04-15T01:09:43;8.10;99.90
51982;DHT22;37998;53.416;6.730;2023-04-15T01:12:12;8.10;99.90
51982;DHT22;37998;53.416;6.730;2023-04-15T01:14:39;8.10;99.90
51982;DHT22;37998;53.416;6.730;2023-04-15T01:17:05;8.00;99.90
51982;DHT22;37998;53.416;6.730;2023-04-15T01:19:31;8.00;99.90
51982;DHT22;37998;53.416;6.730;2023-04-15T01:21:57;8.00;99.90
51982;DHT22;37998;53.416;6.730;2023-04-15T01:24:25;7.90;99.90
51982;DHT22;37998;53.416;6.730;2023-04-15T01:26:52;7.90;99.90
51982;DHT22;37998;53.416;6.730;2023-04-15T01:29:18;7.90;99.90
51982;DHT22;37998;53.416;6.730;2023-04-15T01:31:54;7.90;99.90
51982;DHT22;37998;53.416;6.730;2023-04-15T01:34:20;7.80;99.90
51982;DHT22;37998;53.416;6.730;2023-04-15T01:36:47;7.80;99.90
51982;DHT22;37998;53.416;6.730;2023-04-15T01:39:13;7.70;99.90
51982;DHT22;37998;53.416;6.730;2023-04-15T01:41:39;7.70;99.90
51982;DHT22;37998;53.416;6.730;2023-04-15T01:44:06;7.80;99.90
51982;DHT22;37998;53.416;6.730;2023-04-15T01:46:33;7.80;99.90
51982;DHT22;37998;53.416;6.730;2023-04-15T01:48:59;7.70;99.90
51982;DHT22;37998;53.416;6.730;2023-04-15T01:51:25;7.70;99.90
51982;DHT22;37998;53.416;6.730;2023-04-15T01:53:51;7.70;99.90
51982;DHT22;37998;53.416;6.730;2023-04-15T01:56:17;7.70;99.90
51982;DHT22;37998;53.416;6.730;2023-04-15T01:58:43;7.70;99.90
51982;DHT22;37998;53.416;6.730;2023-04-15T02:01:09;7.60;99.90
51982;DHT22;37998;53.416;6.730;2023-04-15T02:03:36;7.60;99.90
51982;DHT22;37998;53.416;6.730;2023-04-15T02:06:02;7.60;99.90
51982;DHT22;37998;53.416;6.730;2023-04-15T02:08:29;7.60;99.90
51982;DHT22;37998;53.416;6.730;2023-04-15T02:10:54;7.50;99.90
51982;DHT22;37998;53.416;6.730;2023-04-15T02:13:20;7.50;99.90
51982;DHT22;37998;53.416;6.730;2023-04-15T02:15:47;7.50;99.90
51982;DHT22;37998;53.416;6.730;2023-04-15T02:18:13;7.50;99.90
51982;DHT22;37998;53.416;6.730;2023-04-15T02:20:39;7.50;99.90
51982;DHT22;37998;53.416;6.730;2023-04-15T02:23:05;7.50;99.90
51982;DHT22;37998;53.416;6.730;2023-04-15T02:25:32;7.40;99.90
51982;DHT22;37998;53.416;6.730;2023-04-15T02:27:58;7.40;99.90
51982;DHT22;37998;53.416;6.730;2023-04-15T02:30:24;7.40;99.90
51982;DHT22;37998;53.416;6.730;2023-04-15T02:32:50;7.30;99.90
51982;DHT22;37998;53.416;6.730;2023-04-15T02:35:16;7.30;99.90
51982;DHT22;37998;53.416;6.730;2023-04-15T02:37:44;7.30;99.90
51982;DHT22;37998;53.416;6.730;2023-04-15T02:40:10;7.30;99.90
51982;DHT22;37998;53.416;6.730;2023-04-15T02:42:40;7.30;99.90
51982;DHT22;37998;53.416;6.730;2023-04-15T02:45:07;7.20;99.90
51982;DHT22;37998;53.416;6.730;2023-04-15T02:47:34;7.10;99.90
51982;DHT22;37998;53.416;6.730;2023-04-15T02:50:03;7.10;99.90
51982;DHT22;37998;53.416;6.730;2023-04-15T02:52:29;7.10;99.90
51982;DHT22;37998;53.416;6.730;2023-04-15T02:54:55;7.00;99.90
51982;DHT22;37998;53.416;6.730;2023-04-15T02:57:26;7.00;99.90
51982;DHT22;37998;53.416;6.730;2023-04-15T02:59:52;6.90;99.90
51982;DHT22;37998;53.416;6.730;2023-04-15T03:02:18;6.90;99.90
51982;DHT22;37998;53.416;6.730;2023-04-15T03:04:44;6.80;99.90
51982;DHT22;37998;53.416;6.730;2023-04-15T03:07:09;6.80;99.90
51982;DHT22;37998;53.416;6.730;2023-04-15T03:09:35;6.80;99.90
51982;DHT22;37998;53.416;6.730;2023-04-15T03:12:01;6.80;99.90
51982;DHT22;37998;53.416;6.730;2023-04-15T03:14:27;6.80;99.90
51982;DHT22;37998;53.416;6.730;2023-04-15T03:16:52;6.90;99.90
51982;DHT22;37998;53.416;6.730;2023-04-15T03:19:18;7.00;99.90
51982;DHT22;37998;53.416;6.730;2023-04-15T03:21:44;6.90;99.90
51982;DHT22;37998;53.416;6.730;2023-04-15T03:24:10;6.90;99.90
51982;DHT22;37998;53.416;6.730;2023-04-15T03:26:35;6.90;99.90
51982;DHT22;37998;53.416;6.730;2023-04-15T03:29:01;6.90;99.90
51982;DHT22;37998;53.416;6.730;2023-04-15T03:31:27;6.90;99.90
51982;DHT22;37998;53.416;6.730;2023-04-15T03:33:52;6.90;99.90
51982;DHT22;37998;53.416;6.730;2023-04-15T03:36:18;6.90;99.90
51982;DHT22;37998;53.416;6.730;2023-04-15T03:38:44;6.90;99.90
51982;DHT22;37998;53.416;6.730;2023-04-15T03:41:09;6.80;99.90
51982;DHT22;37998;53.416;6.730;2023-04-15T03:43:35;6.80;99.90
51982;DHT22;37998;53.416;6.730;2023-04-15T03:46:01;6.70;99.90
51982;DHT22;37998;53.416;6.730;2023-04-15T03:48:27;6.70;99.90
51982;DHT22;37998;53.416;6.730;2023-04-15T03:50:53;6.60;99.90
51982;DHT22;37998;53.416;6.730;2023-04-15T03:53:20;6.70;99.90
51982;DHT22;37998;53.416;6.730;2023-04-15T03:55:45;6.70;99.90
51982;DHT22;37998;53.416;6.730;2023-04-15T03:58:11;6.70;99.90
51982;DHT22;37998;53.416;6.730;2023-04-15T04:00:40;6.70;99.90
51982;DHT22;37998;53.416;6.730;2023-04-15T04:03:06;6.80;99.90
51982;DHT22;37998;53.416;6.730;2023-04-15T04:05:32;6.80;99.90
51982;DHT22;37998;53.416;6.730;2023-04-15T04:07:58;6.80;99.90
51982;DHT22;37998;53.416;6.730;2023-04-15T04:10:23;6.80;99.90
51982;DHT22;37998;53.416;6.730;2023-04-15T04:12:49;6.90;99.90
51982;DHT22;37998;53.416;6.730;2023-04-15T04:15:15;6.80;99.90
51982;DHT22;37998;53.416;6.730;2023-04-15T04:17:40;6.80;99.90
51982;DHT22;37998;53.416;6.730;2023-04-15T04:20:07;6.80;99.90
51982;DHT22;37998;53.416;6.730;2023-04-15T04:22:37;6.80;99.90
51982;DHT22;37998;53.416;6.730;2023-04-15T04:25:04;6.90;99.90
51982;DHT22;37998;53.416;6.730;2023-04-15T04:27:30;6.90;99.90
51982;DHT22;37998;53.416;6.730;2023-04-15T04:29:55;6.90;99.90
51982;DHT22;37998;53.416;6.730;2023-04-15T04:32:21;7.00;99.90
51982;DHT22;37998;53.416;6.730;2023-04-15T04:34:47;7.00;99.90
51982;DHT22;37998;53.416;6.730;2023-04-15T04:37:13;7.00;99.90
51982;DHT22;37998;53.416;6.730;2023-04-15T04:39:38;6.90;99.90
51982;DHT22;37998;53.416;6.730;2023-04-15T04:42:04;6.90;99.90
51982;DHT22;37998;53.416;6.730;2023-04-15T04:44:30;6.90;99.90
51982;DHT22;37998;53.416;6.730;2023-04-15T04:46:55;6.80;99.90
51982;DHT22;37998;53.416;6.730;2023-04-15T04:49:21;6.70;99.90
51982;DHT22;37998;53.416;6.730;2023-04-15T04:51:47;6.60;99.90
51982;DHT22;37998;53.416;6.730;2023-04-15T04:54:13;6.60;99.90
51982;DHT22;37998;53.416;6.730;2023-04-15T04:56:39;6.60;99.90
51982;DHT22;37998;53.416;6.730;2023-04-15T04:59:05;6.40;99.90
51982;DHT22;37998;53.416;6.730;2023-04-15T05:01:32;6.40;99.90
51982;DHT22;37998;53.416;6.730;2023-04-15T05:03:58;6.40;99.90
51982;DHT22;37998;53.416;6.730;2023-04-15T05:06:24;6.50;99.90
51982;DHT22;37998;53.416;6.730;2023-04-15T05:08:50;6.50;99.90
51982;DHT22;37998;53.416;6.730;2023-04-15T05:11:16;6.60;99.90
51982;DHT22;37998;53.416;6.730;2023-04-15T05:13:42;6.60;99.90
51982;DHT22;37998;53.416;6.730;2023-04-15T05:16:07;6.70;99.90
51982;DHT22;37998;53.416;6.730;2023-04-15T05:18:34;6.70;99.90
51982;DHT22;37998;53.416;6.730;2023-04-15T05:20:59;6.80;99.90
51982;DHT22;37998;53.416;6.730;2023-04-15T05:23:25;6.80;99.90
51982;DHT22;37998;53.416;6.730;2023-04-15T05:25:51;6.80;99.90
51982;DHT22;37998;53.416;6.730;2023-04-15T05:28:17;6.80;99.90
51982;DHT22;37998;53.416;6.730;2023-04-15T05:30:42;6.80;99.90
51982;DHT22;37998;53.416;6.730;2023-04-15T05:33:08;6.90;99.90
51982;DHT22;37998;53.416;6.730;2023-04-15T05:35:34;7.00;99.90
51982;DHT22;37998;53.416;6.730;2023-04-15T05:38:00;7.00;99.90
51982;DHT22;37998;53.416;6.730;2023-04-15T05:40:25;7.10;99.90
51982;DHT22;37998;53.416;6.730;2023-04-15T05:42:51;7.20;99.90
51982;DHT22;37998;53.416;6.730;2023-04-15T05:45:17;7.20;99.90
51982;DHT22;37998;53.416;6.730;2023-04-15T05:47:43;7.30;99.90
51982;DHT22;37998;53.416;6.730;2023-04-15T05:50:09;7.40;99.90
51982;DHT22;37998;53.416;6.730;2023-04-15T05:52:35;7.40;99.90
51982;DHT22;37998;53.416;6.730;2023-04-15T05:55:01;7.50;99.90
51982;DHT22;37998;53.416;6.730;2023-04-15T05:57:27;7.50;99.90
51982;DHT22;37998;53.416;6.730;2023-04-15T05:59:52;7.50;99.90
51982;DHT22;37998;53.416;6.730;2023-04-15T06:02:21;7.60;99.90
51982;DHT22;37998;53.416;6.730;2023-04-15T06:04:47;7.70;99.90
51982;DHT22;37998;53.416;6.730;2023-04-15T06:07:12;7.70;99.90
51982;DHT22;37998;53.416;6.730;2023-04-15T06:09:38;7.70;99.90
51982;DHT22;37998;53.416;6.730;2023-04-15T06:12:07;7.80;99.90
51982;DHT22;37998;53.416;6.730;2023-04-15T06:14:37;7.80;99.90
51982;DHT22;37998;53.416;6.730;2023-04-15T06:17:03;7.90;99.90
51982;DHT22;37998;53.416;6.730;2023-04-15T06:19:28;7.80;99.90
51982;DHT22;37998;53.416;6.730;2023-04-15T06:21:54;7.90;99.90
51982;DHT22;37998;53.416;6.730;2023-04-15T06:24:20;7.00;99.90
51982;DHT22;37998;53.416;6.730;2023-04-15T06:26:46;8.00;99.90
51982;DHT22;37998;53.416;6.730;2023-04-15T06:29:11;8.00;99.90
51982;DHT22;37998;53.416;6.730;2023-04-15T06:31:37;8.00;99.90
51982;DHT22;37998;53.416;6.730;2023-04-15T06:34:02;7.90;99.90
51982;DHT22;37998;53.416;6.730;2023-04-15T06:36:28;8.00;99.90
51982;DHT22;37998;53.416;6.730;2023-04-15T06:38:54;8.00;99.90
51982;DHT22;37998;53.416;6.730;2023-04-15T06:41:21;8.00;99.90
51982;DHT22;37998;53.416;6.730;2023-04-15T06:43:46;8.00;99.90
51982;DHT22;37998;53.416;6.730;2023-04-15T06:46:12;8.10;99.90
51982;DHT22;37998;53.416;6.730;2023-04-15T06:48:38;8.10;99.90
51982;DHT22;37998;53.416;6.730;2023-04-15T06:51:03;8.10;99.90
51982;DHT22;37998;53.416;6.730;2023-04-15T06:53:29;8.10;99.90
51982;DHT22;37998;53.416;6.730;2023-04-15T06:55:55;8.20;99.90
51982;DHT22;37998;53.416;6.730;2023-04-15T06:58:21;8.20;99.90
51982;DHT22;37998;53.416;6.730;2023-04-15T07:00:47;8.20;99.90
51982;DHT22;37998;53.416;6.730;2023-04-15T07:03:13;8.20;99.90
51982;DHT22;37998;53.416;6.730;2023-04-15T07:05:39;8.20;99.90
51982;DHT22;37998;53.416;6.730;2023-04-15T07:08:05;8.20;99.90
51982;DHT22;37998;53.416;6.730;2023-04-15T07:10:33;8.30;99.90
51982;DHT22;37998;53.416;6.730;2023-04-15T07:12:58;8.30;99.90
51982;DHT22;37998;53.416;6.730;2023-04-15T07:15:24;8.30;99.90
51982;DHT22;37998;53.416;6.730;2023-04-15T07:17:50;8.30;99.90
51982;DHT22;37998;53.416;6.730;2023-04-15T07:20:15;8.30;99.90
51982;DHT22;37998;53.416;6.730;2023-04-15T07:22:41;8.30;99.90
51982;DHT22;37998;53.416;6.730;2023-04-15T07:25:07;8.30;99.90
51982;DHT22;37998;53.416;6.730;2023-04-15T07:27:33;8.30;99.90
51982;DHT22;37998;53.416;6.730;2023-04-15T07:29:59;8.30;99.90
51982;DHT22;37998;53.416;6.730;2023-04-15T07:32:24;8.30;99.90
51982;DHT22;37998;53.416;6.730;2023-04-15T07:34:50;8.30;99.90
51982;DHT22;37998;53.416;6.730;2023-04-15T07:37:16;8.30;99.90
51982;DHT22;37998;53.416;6.730;2023-04-15T07:39:42;8.30;99.90
51982;DHT22;37998;53.416;6.730;2023-04-15T07:42:08;8.40;99.90
51982;DHT22;37998;53.416;6.730;2023-04-15T07:44:34;8.50;99.90
51982;DHT22;37998;53.416;6.730;2023-04-15T07:47:01;8.40;99.90
51982;DHT22;37998;53.416;6.730;2023-04-15T07:49:27;8.40;99.90
51982;DHT22;37998;53.416;6.730;2023-04-15T07:51:52;8.40;99.90
51982;DHT22;37998;53.416;6.730;2023-04-15T07:54:18;8.40;99.90
51982;DHT22;37998;53.416;6.730;2023-04-15T07:56:44;8.30;99.90
51982;DHT22;37998;53.416;6.730;2023-04-15T07:59:09;8.30;99.90
51982;DHT22;37998;53.416;6.730;2023-04-15T08:01:36;8.30;99.90
51982;DHT22;37998;53.416;6.730;2023-04-15T08:04:02;8.30;99.90
51982;DHT22;37998;53.416;6.730;2023-04-15T08:06:28;8.30;99.90
51982;DHT22;37998;53.416;6.730;2023-04-15T08:08:54;8.30;99.90
51982;DHT22;37998;53.416;6.730;2023-04-15T08:11:20;8.00;99.90
51982;DHT22;37998;53.416;6.730;2023-04-15T08:13:46;8.40;99.90
51982;DHT22;37998;53.416;6.730;2023-04-15T08:16:17;8.30;99.90
51982;DHT22;37998;53.416;6.730;2023-04-15T08:18:47;8.40;99.90
51982;DHT22;37998;53.416;6.730;2023-04-15T08:21:13;8.40;99.90
51982;DHT22;37998;53.416;6.730;2023-04-15T08:23:39;8.40;99.90
51982;DHT22;37998;53.416;6.730;2023-04-15T08:26:05;8.40;99.90
51982;DHT22;37998;53.416;6.730;2023-04-15T08:28:32;8.40;99.90
51982;DHT22;37998;53.416;6.730;2023-04-15T08:30:57;8.90;99.90
51982;DHT22;37998;53.416;6.730;2023-04-15T08:33:23;8.60;99.90
51982;DHT22;37998;53.416;6.730;2023-04-15T08:35:49;8.60;99.90
51982;DHT22;37998;53.416;6.730;2023-04-15T08:38:15;8.70;99.90
51982;DHT22;37998;53.416;6.730;2023-04-15T08:40:43;8.70;99.90
51982;DHT22;37998;53.416;6.730;2023-04-15T08:43:26;8.70;99.90
51982;DHT22;37998;53.416;6.730;2023-04-15T08:45:54;8.70;99.90
51982;DHT22;37998;53.416;6.730;2023-04-15T08:48:20;8.70;99.90
51982;DHT22;37998;53.416;6.730;2023-04-15T08:50:50;8.70;99.90
51982;DHT22;37998;53.416;6.730;2023-04-15T08:53:16;8.70;99.90
51982;DHT22;37998;53.416;6.730;2023-04-15T08:55:44;8.70;99.90
51982;DHT22;37998;53.416;6.730;2023-04-15T08:58:13;8.70;99.90
51982;DHT22;37998;53.416;6.730;2023-04-15T09:00:39;8.80;99.90
51982;DHT22;37998;53.416;6.730;2023-04-15T09:03:06;8.90;99.90
51982;DHT22;37998;53.416;6.730;2023-04-15T09:05:32;9.00;99.90
51982;DHT22;37998;53.416;6.730;2023-04-15T09:07:58;9.00;99.90
51982;DHT22;37998;53.416;6.730;2023-04-15T09:10:24;9.00;99.90
51982;DHT22;37998;53.416;6.730;2023-04-15T09:12:50;9.00;99.90
51982;DHT22;37998;53.416;6.730;2023-04-15T09:15:16;9.00;99.90
51982;DHT22;37998;53.416;6.730;2023-04-15T09:17:43;9.10;99.90
51982;DHT22;37998;53.416;6.730;2023-04-15T09:20:14;9.00;99.90
51982;DHT22;37998;53.416;6.730;2023-04-15T09:22:41;9.00;99.90
51982;DHT22;37998;53.416;6.730;2023-04-15T09:25:25;9.00;99.90
51982;DHT22;37998;53.416;6.730;2023-04-15T09:27:58;8.90;99.90
51982;DHT22;37998;53.416;6.730;2023-04-15T09:30:26;8.90;99.90
51982;DHT22;37998;53.416;6.730;2023-04-15T09:32:57;9.00;99.90
51982;DHT22;37998;53.416;6.730;2023-04-15T09:35:26;9.00;99.90
51982;DHT22;37998;53.416;6.730;2023-04-15T09:37:52;9.00;99.90
51982;DHT22;37998;53.416;6.730;2023-04-15T09:40:37;9.00;99.90
51982;DHT22;37998;53.416;6.730;2023-04-15T09:43:04;9.10;99.90
51982;DHT22;37998;53.416;6.730;2023-04-15T09:45:31;9.10;99.90
51982;DHT22;37998;53.416;6.730;2023-04-15T09:47:59;9.20;99.90
51982;DHT22;37998;53.416;6.730;2023-04-15T09:50:28;9.30;99.90
51982;DHT22;37998;53.416;6.730;2023-04-15T09:52:54;9.30;99.90
51982;DHT22;37998;53.416;6.730;2023-04-15T09:55:20;9.40;99.90
51982;DHT22;37998;53.416;6.730;2023-04-15T09:57:46;9.50;99.90
51982;DHT22;37998;53.416;6.730;2023-04-15T10:00:12;9.50;99.90
51982;DHT22;37998;53.416;6.730;2023-04-15T10:02:39;9.50;99.90
51982;DHT22;37998;53.416;6.730;2023-04-15T10:05:07;9.60;99.90
51982;DHT22;37998;53.416;6.730;2023-04-15T10:07:35;9.50;99.90
51982;DHT22;37998;53.416;6.730;2023-04-15T10:10:02;9.40;99.90
51982;DHT22;37998;53.416;6.730;2023-04-15T10:12:30;9.40;99.90
51982;DHT22;37998;53.416;6.730;2023-04-15T10:14:59;9.40;99.90
51982;DHT22;37998;53.416;6.730;2023-04-15T10:17:29;9.30;99.90
51982;DHT22;37998;53.416;6.730;2023-04-15T10:20:04;9.30;99.90
51982;DHT22;37998;53.416;6.730;2023-04-15T10:22:31;9.20;99.90
51982;DHT22;37998;53.416;6.730;2023-04-15T10:24:57;9.30;99.90
51982;DHT22;37998;53.416;6.730;2023-04-15T10:27:24;9.30;99.90
51982;DHT22;37998;53.416;6.730;2023-04-15T10:29:50;9.20;99.90
51982;DHT22;37998;53.416;6.730;2023-04-15T10:32:18;9.10;99.90
51982;DHT22;37998;53.416;6.730;2023-04-15T10:34:49;9.10;99.90
51982;DHT22;37998;53.416;6.730;2023-04-15T10:37:32;9.10;99.90
51982;DHT22;37998;53.416;6.730;2023-04-15T10:39:58;9.20;99.90
51982;DHT22;37998;53.416;6.730;2023-04-15T10:42:24;9.10;99.90
51982;DHT22;37998;53.416;6.730;2023-04-15T10:44:58;9.10;99.90
51982;DHT22;37998;53.416;6.730;2023-04-15T10:47:24;9.20;99.90
51982;DHT22;37998;53.416;6.730;2023-04-15T10:49:54;9.20;99.90
51982;DHT22;37998;53.416;6.730;2023-04-15T10:52:26;9.20;99.90
51982;DHT22;37998;53.416;6.730;2023-04-15T10:55:15;9.30;99.90
51982;DHT22;37998;53.416;6.730;2023-04-15T10:57:43;9.30;99.90
51982;DHT22;37998;53.416;6.730;2023-04-15T11:00:14;9.30;99.90
51982;DHT22;37998;53.416;6.730;2023-04-15T11:02:43;9.30;99.90
51982;DHT22;37998;53.416;6.730;2023-04-15T11:05:13;9.20;99.90
51982;DHT22;37998;53.416;6.730;2023-04-15T11:07:47;9.20;99.90
51982;DHT22;37998;53.416;6.730;2023-04-15T11:12:54;9.20;99.90
51982;DHT22;37998;53.416;6.730;2023-04-15T11:15:38;9.20;99.90
51982;DHT22;37998;53.416;6.730;2023-04-15T11:18:25;9.00;99.90
51982;DHT22;37998;53.416;6.730;2023-04-15T11:21:04;9.00;99.90
51982;DHT22;37998;53.416;6.730;2023-04-15T11:23:37;9.00;99.90
51982;DHT22;37998;53.416;6.730;2023-04-15T11:26:05;9.00;99.90
51982;DHT22;37998;53.416;6.730;2023-04-15T11:28:34;9.00;99.90
51982;DHT22;37998;53.416;6.730;2023-04-15T11:31:26;7.90;99.90
51982;DHT22;37998;53.416;6.730;2023-04-15T11:33:56;9.00;99.90
51982;DHT22;37998;53.416;6.730;2023-04-15T11:36:24;9.00;99.90
51982;DHT22;37998;53.416;6.730;2023-04-15T11:38:51;9.00;99.90
51982;DHT22;37998;53.416;6.730;2023-04-15T11:41:21;9.00;99.90
51982;DHT22;37998;53.416;6.730;2023-04-15T11:43:47;9.00;99.90
51982;DHT22;37998;53.416;6.730;2023-04-15T11:46:13;9.00;99.90
51982;DHT22;37998;53.416;6.730;2023-04-15T11:48:42;9.00;99.90
51982;DHT22;37998;53.416;6.730;2023-04-15T11:51:09;8.90;99.90
51982;DHT22;37998;53.416;6.730;2023-04-15T11:53:49;8.90;99.90
51982;DHT22;37998;53.416;6.730;2023-04-15T11:56:22;8.90;99.90
51982;DHT22;37998;53.416;6.730;2023-04-15T11:58:51;8.80;99.90
51982;DHT22;37998;53.416;6.730;2023-04-15T12:01:17;8.80;99.90
51982;DHT22;37998;53.416;6.730;2023-04-15T12:03:47;8.80;99.90
51982;DHT22;37998;53.416;6.730;2023-04-15T12:14:20;8.70;99.90
51982;DHT22;37998;53.416;6.730;2023-04-15T12:16:45;8.70;99.90
51982;DHT22;37998;53.416;6.730;2023-04-15T12:19:17;8.70;99.90
51982;DHT22;37998;53.416;6.730;2023-04-15T12:21:45;8.70;99.90
51982;DHT22;37998;53.416;6.730;2023-04-15T12:24:12;8.60;99.90
51982;DHT22;37998;53.416;6.730;2023-04-15T12:26:49;8.80;99.90
51982;DHT22;37998;53.416;6.730;2023-04-15T12:29:15;8.70;99.90
51982;DHT22;37998;53.416;6.730;2023-04-15T12:34:38;8.70;99.90
51982;DHT22;37998;53.416;6.730;2023-04-15T12:37:06;8.70;99.90
51982;DHT22;37998;53.416;6.730;2023-04-15T12:39:41;8.70;99.90
51982;DHT22;37998;53.416;6.730;2023-04-15T12:42:08;8.60;99.90
51982;DHT22;37998;53.416;6.730;2023-04-15T12:44:35;8.60;99.90
51982;DHT22;37998;53.416;6.730;2023-04-15T12:47:00;8.50;99.90
51982;DHT22;37998;53.416;6.730;2023-04-15T12:49:26;8.50;99.90
51982;DHT22;37998;53.416;6.730;2023-04-15T12:51:57;8.40;99.90
51982;DHT22;37998;53.416;6.730;2023-04-15T12:54:24;8.40;99.90
51982;DHT22;37998;53.416;6.730;2023-04-15T12:56:51;8.50;99.90
51982;DHT22;37998;53.416;6.730;2023-04-15T12:59:17;8.50;99.90
51982;DHT22;37998;53.416;6.730;2023-04-15T13:01:43;8.50;99.90
51982;DHT22;37998;53.416;6.730;2023-04-15T13:04:09;8.50;99.90
51982;DHT22;37998;53.416;6.730;2023-04-15T13:06:35;8.50;99.90
51982;DHT22;37998;53.416;6.730;2023-04-15T13:09:01;8.50;99.90
51982;DHT22;37998;53.416;6.730;2023-04-15T13:11:28;8.50;99.90
51982;DHT22;37998;53.416;6.730;2023-04-15T13:14:01;8.50;99.90
51982;DHT22;37998;53.416;6.730;2023-04-15T13:16:28;8.50;99.90
51982;DHT22;37998;53.416;6.730;2023-04-15T13:18:53;8.50;99.90
51982;DHT22;37998;53.416;6.730;2023-04-15T13:21:19;8.50;99.90
51982;DHT22;37998;53.416;6.730;2023-04-15T13:23:45;8.50;99.90
51982;DHT22;37998;53.416;6.730;2023-04-15T13:26:10;8.50;99.90
51982;DHT22;37998;53.416;6.730;2023-04-15T13:28:36;8.50;99.90
51982;DHT22;37998;53.416;6.730;2023-04-15T13:31:02;8.50;99.90
51982;DHT22;37998;53.416;6.730;2023-04-15T13:33:28;8.50;99.90
51982;DHT22;37998;53.416;6.730;2023-04-15T13:35:54;8.50;99.90
51982;DHT22;37998;53.416;6.730;2023-04-15T13:38:19;8.60;99.90
51982;DHT22;37998;53.416;6.730;2023-04-15T13:40:45;8.60;99.90
51982;DHT22;37998;53.416;6.730;2023-04-15T13:43:11;8.60;99.90
51982;DHT22;37998;53.416;6.730;2023-04-15T13:45:37;8.50;99.90
51982;DHT22;37998;53.416;6.730;2023-04-15T13:48:03;8.50;99.90
51982;DHT22;37998;53.416;6.730;2023-04-15T13:50:29;8.50;99.90
51982;DHT22;37998;53.416;6.730;2023-04-15T13:52:54;8.50;99.90
51982;DHT22;37998;53.416;6.730;2023-04-15T13:55:20;8.50;99.90
51982;DHT22;37998;53.416;6.730;2023-04-15T13:57:46;8.50;99.90
51982;DHT22;37998;53.416;6.730;2023-04-15T14:00:12;8.50;99.90
51982;DHT22;37998;53.416;6.730;2023-04-15T14:02:39;8.50;99.90
51982;DHT22;37998;53.416;6.730;2023-04-15T14:05:05;8.50;99.90
51982;DHT22;37998;53.416;6.730;2023-04-15T14:07:30;8.50;99.90
51982;DHT22;37998;53.416;6.730;2023-04-15T14:09:56;8.50;99.90
51982;DHT22;37998;53.416;6.730;2023-04-15T14:12:22;8.50;99.90
51982;DHT22;37998;53.416;6.730;2023-04-15T14:14:47;8.50;99.90
51982;DHT22;37998;53.416;6.730;2023-04-15T14:17:13;8.50;99.90
51982;DHT22;37998;53.416;6.730;2023-04-15T14:19:39;8.50;99.90
51982;DHT22;37998;53.416;6.730;2023-04-15T14:22:04;8.50;99.90
51982;DHT22;37998;53.416;6.730;2023-04-15T14:24:30;8.50;99.90
51982;DHT22;37998;53.416;6.730;2023-04-15T14:26:56;8.40;99.90
51982;DHT22;37998;53.416;6.730;2023-04-15T14:29:22;8.50;99.90
51982;DHT22;37998;53.416;6.730;2023-04-15T14:31:48;8.50;99.90
51982;DHT22;37998;53.416;6.730;2023-04-15T14:34:15;8.50;99.90
51982;DHT22;37998;53.416;6.730;2023-04-15T14:36:41;8.50;99.90
51982;DHT22;37998;53.416;6.730;2023-04-15T14:39:07;8.40;99.90
51982;DHT22;37998;53.416;6.730;2023-04-15T14:41:33;8.40;99.90
51982;DHT22;37998;53.416;6.730;2023-04-15T14:43:58;8.40;99.90
51982;DHT22;37998;53.416;6.730;2023-04-15T14:46:25;9.10;99.90
51982;DHT22;37998;53.416;6.730;2023-04-15T14:48:50;8.40;99.90
51982;DHT22;37998;53.416;6.730;2023-04-15T14:51:16;8.40;99.90
51982;DHT22;37998;53.416;6.730;2023-04-15T14:53:42;8.40;99.90
51982;DHT22;37998;53.416;6.730;2023-04-15T14:56:08;8.40;99.90
51982;DHT22;37998;53.416;6.730;2023-04-15T14:58:34;8.40;99.90
51982;DHT22;37998;53.416;6.730;2023-04-15T15:01:00;8.40;99.90
51982;DHT22;37998;53.416;6.730;2023-04-15T15:03:27;8.40;99.90
51982;DHT22;37998;53.416;6.730;2023-04-15T15:05:53;8.40;99.90
51982;DHT22;37998;53.416;6.730;2023-04-15T15:08:19;8.40;99.90
51982;DHT22;37998;53.416;6.730;2023-04-15T15:10:45;8.30;99.90
51982;DHT22;37998;53.416;6.730;2023-04-15T15:13:11;8.30;99.90
51982;DHT22;37998;53.416;6.730;2023-04-15T15:15:37;8.40;99.90
51982;DHT22;37998;53.416;6.730;2023-04-15T15:18:03;8.40;99.90
51982;DHT22;37998;53.416;6.730;2023-04-15T15:20:29;8.40;99.90
51982;DHT22;37998;53.416;6.730;2023-04-15T15:22:55;8.40;99.90
51982;DHT22;37998;53.416;6.730;2023-04-15T15:25:21;8.30;99.90
51982;DHT22;37998;53.416;6.730;2023-04-15T15:27:47;8.30;99.90
51982;DHT22;37998;53.416;6.730;2023-04-15T15:30:13;8.30;99.90
51982;DHT22;37998;53.416;6.730;2023-04-15T15:32:40;8.30;99.90
51982;DHT22;37998;53.416;6.730;2023-04-15T15:35:07;8.30;99.90
51982;DHT22;37998;53.416;6.730;2023-04-15T15:37:34;8.30;99.90
51982;DHT22;37998;53.416;6.730;2023-04-15T15:40:00;8.70;99.90
51982;DHT22;37998;53.416;6.730;2023-04-15T15:42:26;8.30;99.90
51982;DHT22;37998;53.416;6.730;2023-04-15T15:44:55;8.30;99.90
51982;DHT22;37998;53.416;6.730;2023-04-15T15:47:21;8.20;99.90
51982;DHT22;37998;53.416;6.730;2023-04-15T15:49:46;8.20;99.90
51982;DHT22;37998;53.416;6.730;2023-04-15T15:52:12;8.20;99.90
51982;DHT22;37998;53.416;6.730;2023-04-15T15:54:41;8.20;99.90
51982;DHT22;37998;53.416;6.730;2023-04-15T15:57:07;8.20;99.90